sensor_id;sensor_type;location;lat;lon;timestamp;P1;durP1;ratioP1;P2;durP2;ratioP2
82159;SDS011;71734;50.876;7.372;2023-09-18T00:01:16;9.73;;;4.03;;
82159;SDS011;71734;50.876;7.372;2023-09-18T00:03:44;7.30;;;3.70;;
82159;SDS011;71734;50.876;7.372;2023-09-18T00:06:11;8.98;;;4.43;;
82159;SDS011;71734;50.876;7.372;2023-09-18T00:08:38;8.45;;;3.70;;
82159;SDS011;71734;50.876;7.372;2023-09-18T00:11:06;8.63;;;3.92;;
82159;SDS011;71734;50.876;7.372;2023-09-18T00:13:33;10.55;;;4.05;;
82159;SDS011;71734;50.876;7.372;2023-09-18T00:16:00;7.57;;;3.97;;
82159;SDS011;71734;50.876;7.372;2023-09-18T00:18:29;9.73;;;4.05;;
82159;SDS011;71734;50.876;7.372;2023-09-18T00:20:55;8.95;;;3.50;;
82159;SDS011;71734;50.876;7.372;2023-09-18T00:23:22;10.30;;;3.97;;
82159;SDS011;71734;50.876;7.372;2023-09-18T00:25:48;8.15;;;3.70;;
82159;SDS011;71734;50.876;7.372;2023-09-18T00:28:16;9.00;;;3.45;;
82159;SDS011;71734;50.876;7.372;2023-09-18T00:30:42;8.77;;;3.42;;
82159;SDS011;71734;50.876;7.372;2023-09-18T00:33:13;10.60;;;4.10;;
82159;SDS011;71734;50.876;7.372;2023-09-18T00:35:40;8.35;;;4.07;;
82159;SDS011;71734;50.876;7.372;2023-09-18T00:38:06;9.73;;;4.20;;
82159;SDS011;71734;50.876;7.372;2023-09-18T00:40:33;7.88;;;3.40;;
82159;SDS011;71734;50.876;7.372;2023-09-18T00:43:00;10.30;;;3.83;;
82159;SDS011;71734;50.876;7.372;2023-09-18T00:45:28;7.32;;;3.53;;
82159;SDS011;71734;50.876;7.372;2023-09-18T00:47:55;9.57;;;3.60;;
82159;SDS011;71734;50.876;7.372;2023-09-18T00:50:22;7.32;;;3.50;;
82159;SDS011;71734;50.876;7.372;2023-09-18T00:52:49;9.75;;;3.50;;
82159;SDS011;71734;50.876;7.372;2023-09-18T00:55:16;7.45;;;3.55;;
82159;SDS011;71734;50.876;7.372;2023-09-18T00:57:43;9.25;;;3.65;;
82159;SDS011;71734;50.876;7.372;2023-09-18T01:00:11;8.32;;;3.78;;
82159;SDS011;71734;50.876;7.372;2023-09-18T01:02:41;10.93;;;3.88;;
82159;SDS011;71734;50.876;7.372;2023-09-18T01:05:10;8.40;;;3.83;;
82159;SDS011;71734;50.876;7.372;2023-09-18T01:07:36;10.25;;;4.18;;
82159;SDS011;71734;50.876;7.372;2023-09-18T01:10:03;7.78;;;3.65;;
82159;SDS011;71734;50.876;7.372;2023-09-18T01:12:32;8.63;;;4.00;;
82159;SDS011;71734;50.876;7.372;2023-09-18T01:15:04;7.78;;;3.90;;
82159;SDS011;71734;50.876;7.372;2023-09-18T01:17:38;8.40;;;3.50;;
82159;SDS011;71734;50.876;7.372;2023-09-18T01:20:08;7.93;;;3.40;;
82159;SDS011;71734;50.876;7.372;2023-09-18T01:22:37;9.70;;;4.03;;
82159;SDS011;71734;50.876;7.372;2023-09-18T01:25:03;8.00;;;3.65;;
82159;SDS011;71734;50.876;7.372;2023-09-18T01:27:31;7.15;;;3.28;;
82159;SDS011;71734;50.876;7.372;2023-09-18T01:29:58;8.13;;;4.00;;
82159;SDS011;71734;50.876;7.372;2023-09-18T01:32:25;11.00;;;4.20;;
82159;SDS011;71734;50.876;7.372;2023-09-18T01:34:56;8.30;;;3.38;;
82159;SDS011;71734;50.876;7.372;2023-09-18T01:37:26;9.05;;;3.70;;
82159;SDS011;71734;50.876;7.372;2023-09-18T01:39:56;8.88;;;3.75;;
82159;SDS011;71734;50.876;7.372;2023-09-18T01:42:24;8.02;;;3.90;;
82159;SDS011;71734;50.876;7.372;2023-09-18T01:44:51;8.60;;;3.47;;
82159;SDS011;71734;50.876;7.372;2023-09-18T01:47:19;11.05;;;4.15;;
82159;SDS011;71734;50.876;7.372;2023-09-18T01:49:48;7.40;;;3.45;;
82159;SDS011;71734;50.876;7.372;2023-09-18T01:52:15;8.15;;;3.85;;
82159;SDS011;71734;50.876;7.372;2023-09-18T01:54:41;9.90;;;4.00;;
82159;SDS011;71734;50.876;7.372;2023-09-18T01:57:09;7.63;;;3.45;;
82159;SDS011;71734;50.876;7.372;2023-09-18T01:59:37;8.85;;;3.47;;
82159;SDS011;71734;50.876;7.372;2023-09-18T02:02:04;8.63;;;4.18;;
82159;SDS011;71734;50.876;7.372;2023-09-18T02:04:32;8.80;;;3.60;;
82159;SDS011;71734;50.876;7.372;2023-09-18T02:06:59;9.80;;;3.30;;
82159;SDS011;71734;50.876;7.372;2023-09-18T02:09:25;9.05;;;3.65;;
82159;SDS011;71734;50.876;7.372;2023-09-18T02:11:52;8.05;;;3.53;;
82159;SDS011;71734;50.876;7.372;2023-09-18T02:14:20;9.18;;;3.80;;
82159;SDS011;71734;50.876;7.372;2023-09-18T02:16:46;6.90;;;3.75;;
82159;SDS011;71734;50.876;7.372;2023-09-18T02:19:16;6.65;;;3.17;;
82159;SDS011;71734;50.876;7.372;2023-09-18T02:21:45;7.97;;;3.55;;
82159;SDS011;71734;50.876;7.372;2023-09-18T02:24:13;8.98;;;3.30;;
82159;SDS011;71734;50.876;7.372;2023-09-18T02:26:39;9.95;;;4.43;;
82159;SDS011;71734;50.876;7.372;2023-09-18T02:29:06;7.22;;;3.50;;
82159;SDS011;71734;50.876;7.372;2023-09-18T02:31:36;7.35;;;3.30;;
82159;SDS011;71734;50.876;7.372;2023-09-18T02:34:03;9.48;;;3.00;;
82159;SDS011;71734;50.876;7.372;2023-09-18T02:36:29;7.28;;;3.25;;
82159;SDS011;71734;50.876;7.372;2023-09-18T02:38:56;8.27;;;3.22;;
82159;SDS011;71734;50.876;7.372;2023-09-18T02:41:22;8.02;;;3.05;;
82159;SDS011;71734;50.876;7.372;2023-09-18T02:43:49;7.45;;;3.08;;
82159;SDS011;71734;50.876;7.372;2023-09-18T02:46:15;8.45;;;3.40;;
82159;SDS011;71734;50.876;7.372;2023-09-18T02:48:43;10.52;;;3.17;;
82159;SDS011;71734;50.876;7.372;2023-09-18T02:51:09;9.70;;;3.40;;
82159;SDS011;71734;50.876;7.372;2023-09-18T02:53:36;11.15;;;3.75;;
82159;SDS011;71734;50.876;7.372;2023-09-18T02:59:00;10.50;;;3.33;;
82159;SDS011;71734;50.876;7.372;2023-09-18T03:01:26;8.02;;;3.05;;
82159;SDS011;71734;50.876;7.372;2023-09-18T03:03:54;8.32;;;3.13;;
82159;SDS011;71734;50.876;7.372;2023-09-18T03:06:21;8.20;;;3.10;;
82159;SDS011;71734;50.876;7.372;2023-09-18T03:08:48;11.57;;;3.30;;
82159;SDS011;71734;50.876;7.372;2023-09-18T03:11:14;8.80;;;3.30;;
82159;SDS011;71734;50.876;7.372;2023-09-18T03:13:44;10.18;;;3.97;;
82159;SDS011;71734;50.876;7.372;2023-09-18T03:16:12;9.82;;;3.47;;
82159;SDS011;71734;50.876;7.372;2023-09-18T03:18:38;7.82;;;3.50;;
82159;SDS011;71734;50.876;7.372;2023-09-18T03:21:06;9.23;;;3.05;;
82159;SDS011;71734;50.876;7.372;2023-09-18T03:23:33;7.18;;;3.20;;
82159;SDS011;71734;50.876;7.372;2023-09-18T03:25:59;10.57;;;3.42;;
82159;SDS011;71734;50.876;7.372;2023-09-18T03:28:25;9.93;;;3.13;;
82159;SDS011;71734;50.876;7.372;2023-09-18T03:30:52;9.73;;;3.30;;
82159;SDS011;71734;50.876;7.372;2023-09-18T03:33:18;12.45;;;3.15;;
82159;SDS011;71734;50.876;7.372;2023-09-18T03:35:45;7.63;;;3.13;;
82159;SDS011;71734;50.876;7.372;2023-09-18T03:38:15;11.32;;;3.38;;
82159;SDS011;71734;50.876;7.372;2023-09-18T03:40:41;11.73;;;3.63;;
82159;SDS011;71734;50.876;7.372;2023-09-18T03:43:08;13.20;;;3.40;;
82159;SDS011;71734;50.876;7.372;2023-09-18T03:45:35;9.60;;;3.25;;
82159;SDS011;71734;50.876;7.372;2023-09-18T03:48:02;11.55;;;3.22;;
82159;SDS011;71734;50.876;7.372;2023-09-18T03:50:29;11.02;;;3.63;;
82159;SDS011;71734;50.876;7.372;2023-09-18T03:52:55;10.20;;;3.70;;
82159;SDS011;71734;50.876;7.372;2023-09-18T03:55:23;12.02;;;3.20;;
82159;SDS011;71734;50.876;7.372;2023-09-18T03:57:49;9.70;;;3.25;;
82159;SDS011;71734;50.876;7.372;2023-09-18T04:00:16;9.63;;;3.22;;
82159;SDS011;71734;50.876;7.372;2023-09-18T04:02:42;9.13;;;2.67;;
82159;SDS011;71734;50.876;7.372;2023-09-18T04:05:09;9.70;;;3.45;;
82159;SDS011;71734;50.876;7.372;2023-09-18T04:07:44;11.43;;;3.63;;
82159;SDS011;71734;50.876;7.372;2023-09-18T04:10:11;10.38;;;3.22;;
82159;SDS011;71734;50.876;7.372;2023-09-18T04:12:46;9.95;;;4.00;;
82159;SDS011;71734;50.876;7.372;2023-09-18T04:15:13;12.70;;;3.13;;
82159;SDS011;71734;50.876;7.372;2023-09-18T04:17:40;13.85;;;3.20;;
82159;SDS011;71734;50.876;7.372;2023-09-18T04:20:07;8.05;;;2.95;;
82159;SDS011;71734;50.876;7.372;2023-09-18T04:22:34;8.27;;;2.70;;
82159;SDS011;71734;50.876;7.372;2023-09-18T04:25:01;9.82;;;2.88;;
82159;SDS011;71734;50.876;7.372;2023-09-18T04:27:30;12.10;;;2.90;;
82159;SDS011;71734;50.876;7.372;2023-09-18T04:29:58;10.45;;;2.90;;
82159;SDS011;71734;50.876;7.372;2023-09-18T04:32:29;8.32;;;2.92;;
82159;SDS011;71734;50.876;7.372;2023-09-18T04:34:57;13.15;;;3.22;;
82159;SDS011;71734;50.876;7.372;2023-09-18T04:37:24;10.43;;;3.30;;
82159;SDS011;71734;50.876;7.372;2023-09-18T04:39:55;11.40;;;2.60;;
82159;SDS011;71734;50.876;7.372;2023-09-18T04:42:23;7.93;;;3.03;;
82159;SDS011;71734;50.876;7.372;2023-09-18T04:44:52;12.63;;;2.60;;
82159;SDS011;71734;50.876;7.372;2023-09-18T04:47:20;8.68;;;2.60;;
82159;SDS011;71734;50.876;7.372;2023-09-18T04:49:47;9.75;;;3.00;;
82159;SDS011;71734;50.876;7.372;2023-09-18T04:52:14;10.05;;;2.92;;
82159;SDS011;71734;50.876;7.372;2023-09-18T04:54:40;10.05;;;2.88;;
82159;SDS011;71734;50.876;7.372;2023-09-18T04:57:07;8.82;;;2.13;;
82159;SDS011;71734;50.876;7.372;2023-09-18T04:59:34;8.55;;;2.40;;
82159;SDS011;71734;50.876;7.372;2023-09-18T05:02:01;9.00;;;2.20;;
82159;SDS011;71734;50.876;7.372;2023-09-18T05:04:29;7.57;;;2.15;;
82159;SDS011;71734;50.876;7.372;2023-09-18T05:06:56;13.60;;;2.70;;
82159;SDS011;71734;50.876;7.372;2023-09-18T05:09:22;8.10;;;2.40;;
82159;SDS011;71734;50.876;7.372;2023-09-18T05:11:52;6.50;;;2.03;;
82159;SDS011;71734;50.876;7.372;2023-09-18T05:14:18;8.40;;;2.25;;
82159;SDS011;71734;50.876;7.372;2023-09-18T05:16:45;7.80;;;2.15;;
82159;SDS011;71734;50.876;7.372;2023-09-18T05:22:19;8.15;;;2.20;;
82159;SDS011;71734;50.876;7.372;2023-09-18T05:24:46;9.00;;;2.30;;
82159;SDS011;71734;50.876;7.372;2023-09-18T05:27:12;7.70;;;2.25;;
82159;SDS011;71734;50.876;7.372;2023-09-18T05:29:39;8.00;;;2.05;;
82159;SDS011;71734;50.876;7.372;2023-09-18T05:32:05;8.07;;;2.30;;
82159;SDS011;71734;50.876;7.372;2023-09-18T05:34:31;6.45;;;2.17;;
82159;SDS011;71734;50.876;7.372;2023-09-18T05:36:58;6.43;;;1.98;;
82159;SDS011;71734;50.876;7.372;2023-09-18T05:39:26;8.80;;;2.40;;
82159;SDS011;71734;50.876;7.372;2023-09-18T05:41:52;10.07;;;2.95;;
82159;SDS011;71734;50.876;7.372;2023-09-18T05:44:18;8.10;;;2.00;;
82159;SDS011;71734;50.876;7.372;2023-09-18T05:46:45;8.90;;;2.47;;
82159;SDS011;71734;50.876;7.372;2023-09-18T05:49:11;8.32;;;2.30;;
82159;SDS011;71734;50.876;7.372;2023-09-18T05:51:38;8.73;;;2.00;;
82159;SDS011;71734;50.876;7.372;2023-09-18T05:54:04;6.80;;;1.95;;
82159;SDS011;71734;50.876;7.372;2023-09-18T05:56:33;7.10;;;1.83;;
82159;SDS011;71734;50.876;7.372;2023-09-18T05:58:59;9.13;;;2.40;;
82159;SDS011;71734;50.876;7.372;2023-09-18T06:01:26;7.63;;;2.47;;
82159;SDS011;71734;50.876;7.372;2023-09-18T06:03:52;5.93;;;1.92;;
82159;SDS011;71734;50.876;7.372;2023-09-18T06:06:19;5.93;;;2.20;;
82159;SDS011;71734;50.876;7.372;2023-09-18T06:08:45;8.77;;;2.38;;
82159;SDS011;71734;50.876;7.372;2023-09-18T06:11:12;8.15;;;2.00;;
82159;SDS011;71734;50.876;7.372;2023-09-18T06:13:40;5.95;;;1.80;;
82159;SDS011;71734;50.876;7.372;2023-09-18T06:16:06;7.07;;;2.13;;
82159;SDS011;71734;50.876;7.372;2023-09-18T06:18:33;8.52;;;2.22;;
82159;SDS011;71734;50.876;7.372;2023-09-18T06:21:00;5.78;;;1.80;;
82159;SDS011;71734;50.876;7.372;2023-09-18T06:23:27;8.40;;;2.08;;
82159;SDS011;71734;50.876;7.372;2023-09-18T06:25:53;5.40;;;1.65;;
82159;SDS011;71734;50.876;7.372;2023-09-18T06:28:21;9.00;;;2.28;;
82159;SDS011;71734;50.876;7.372;2023-09-18T06:30:49;8.85;;;1.83;;
82159;SDS011;71734;50.876;7.372;2023-09-18T06:33:15;9.80;;;2.10;;
82159;SDS011;71734;50.876;7.372;2023-09-18T06:35:42;8.63;;;2.00;;
82159;SDS011;71734;50.876;7.372;2023-09-18T06:38:08;6.45;;;1.77;;
82159;SDS011;71734;50.876;7.372;2023-09-18T06:40:37;6.60;;;2.00;;
82159;SDS011;71734;50.876;7.372;2023-09-18T06:43:04;6.63;;;2.00;;
82159;SDS011;71734;50.876;7.372;2023-09-18T06:45:31;7.53;;;2.03;;
82159;SDS011;71734;50.876;7.372;2023-09-18T06:47:59;6.40;;;1.60;;
82159;SDS011;71734;50.876;7.372;2023-09-18T06:50:26;8.48;;;2.00;;
82159;SDS011;71734;50.876;7.372;2023-09-18T06:52:52;9.07;;;2.10;;
82159;SDS011;71734;50.876;7.372;2023-09-18T06:55:19;6.95;;;2.00;;
82159;SDS011;71734;50.876;7.372;2023-09-18T06:57:45;6.78;;;2.13;;
82159;SDS011;71734;50.876;7.372;2023-09-18T07:00:12;4.53;;;1.70;;
82159;SDS011;71734;50.876;7.372;2023-09-18T07:02:43;6.47;;;1.80;;
82159;SDS011;71734;50.876;7.372;2023-09-18T07:05:11;6.63;;;1.70;;
82159;SDS011;71734;50.876;7.372;2023-09-18T07:07:39;7.93;;;1.90;;
82159;SDS011;71734;50.876;7.372;2023-09-18T07:10:05;5.63;;;1.65;;
82159;SDS011;71734;50.876;7.372;2023-09-18T07:12:32;5.03;;;1.58;;
82159;SDS011;71734;50.876;7.372;2023-09-18T07:15:00;6.75;;;1.60;;
82159;SDS011;71734;50.876;7.372;2023-09-18T07:17:28;6.32;;;1.67;;
82159;SDS011;71734;50.876;7.372;2023-09-18T07:19:55;5.53;;;1.42;;
82159;SDS011;71734;50.876;7.372;2023-09-18T07:22:22;5.45;;;1.50;;
82159;SDS011;71734;50.876;7.372;2023-09-18T07:24:49;7.05;;;1.75;;
82159;SDS011;71734;50.876;7.372;2023-09-18T07:27:15;7.53;;;1.52;;
82159;SDS011;71734;50.876;7.372;2023-09-18T07:29:42;6.07;;;1.60;;
82159;SDS011;71734;50.876;7.372;2023-09-18T07:32:09;4.95;;;1.80;;
82159;SDS011;71734;50.876;7.372;2023-09-18T07:34:35;5.93;;;1.60;;
82159;SDS011;71734;50.876;7.372;2023-09-18T07:37:02;6.30;;;1.55;;
82159;SDS011;71734;50.876;7.372;2023-09-18T07:39:30;5.20;;;1.25;;
82159;SDS011;71734;50.876;7.372;2023-09-18T07:41:57;4.38;;;1.52;;
82159;SDS011;71734;50.876;7.372;2023-09-18T07:44:23;7.20;;;1.48;;
82159;SDS011;71734;50.876;7.372;2023-09-18T07:46:50;4.60;;;1.23;;
82159;SDS011;71734;50.876;7.372;2023-09-18T07:49:16;10.20;;;2.65;;
82159;SDS011;71734;50.876;7.372;2023-09-18T07:51:43;4.80;;;1.30;;
82159;SDS011;71734;50.876;7.372;2023-09-18T07:54:13;6.20;;;1.50;;
82159;SDS011;71734;50.876;7.372;2023-09-18T07:56:42;6.47;;;1.40;;
82159;SDS011;71734;50.876;7.372;2023-09-18T07:59:08;7.50;;;1.30;;
82159;SDS011;71734;50.876;7.372;2023-09-18T08:01:35;5.93;;;1.70;;
82159;SDS011;71734;50.876;7.372;2023-09-18T08:04:01;6.20;;;1.80;;
82159;SDS011;71734;50.876;7.372;2023-09-18T08:06:28;4.68;;;1.35;;
82159;SDS011;71734;50.876;7.372;2023-09-18T08:08:55;4.47;;;1.30;;
82159;SDS011;71734;50.876;7.372;2023-09-18T08:11:21;5.80;;;1.30;;
82159;SDS011;71734;50.876;7.372;2023-09-18T08:13:49;5.57;;;1.60;;
82159;SDS011;71734;50.876;7.372;2023-09-18T08:16:15;6.47;;;1.42;;
82159;SDS011;71734;50.876;7.372;2023-09-18T08:18:42;4.40;;;1.20;;
82159;SDS011;71734;50.876;7.372;2023-09-18T08:21:08;5.40;;;1.48;;
82159;SDS011;71734;50.876;7.372;2023-09-18T08:23:35;3.55;;;1.20;;
82159;SDS011;71734;50.876;7.372;2023-09-18T08:26:01;4.43;;;1.50;;
82159;SDS011;71734;50.876;7.372;2023-09-18T08:28:28;4.18;;;1.20;;
82159;SDS011;71734;50.876;7.372;2023-09-18T08:30:56;5.05;;;1.45;;
82159;SDS011;71734;50.876;7.372;2023-09-18T08:33:23;4.03;;;1.20;;
82159;SDS011;71734;50.876;7.372;2023-09-18T08:35:50;6.25;;;1.73;;
82159;SDS011;71734;50.876;7.372;2023-09-18T08:38:16;6.82;;;1.85;;
82159;SDS011;71734;50.876;7.372;2023-09-18T08:40:43;5.25;;;1.40;;
82159;SDS011;71734;50.876;7.372;2023-09-18T08:43:10;4.15;;;1.40;;
82159;SDS011;71734;50.876;7.372;2023-09-18T08:45:40;4.60;;;1.38;;
82159;SDS011;71734;50.876;7.372;2023-09-18T08:48:13;4.95;;;1.60;;
82159;SDS011;71734;50.876;7.372;2023-09-18T08:50:40;3.75;;;1.30;;
82159;SDS011;71734;50.876;7.372;2023-09-18T08:53:08;5.03;;;1.55;;
82159;SDS011;71734;50.876;7.372;2023-09-18T08:55:38;6.15;;;1.45;;
82159;SDS011;71734;50.876;7.372;2023-09-18T08:58:05;6.78;;;1.50;;
82159;SDS011;71734;50.876;7.372;2023-09-18T09:00:36;4.32;;;1.40;;
82159;SDS011;71734;50.876;7.372;2023-09-18T09:03:03;5.05;;;1.40;;
82159;SDS011;71734;50.876;7.372;2023-09-18T09:05:32;4.90;;;1.60;;
82159;SDS011;71734;50.876;7.372;2023-09-18T09:07:59;5.90;;;1.40;;
82159;SDS011;71734;50.876;7.372;2023-09-18T09:10:26;4.60;;;1.40;;
82159;SDS011;71734;50.876;7.372;2023-09-18T09:12:53;6.22;;;1.45;;
82159;SDS011;71734;50.876;7.372;2023-09-18T09:15:21;5.93;;;1.40;;
82159;SDS011;71734;50.876;7.372;2023-09-18T09:17:48;4.63;;;1.38;;
82159;SDS011;71734;50.876;7.372;2023-09-18T09:20:15;5.13;;;1.40;;
82159;SDS011;71734;50.876;7.372;2023-09-18T09:22:45;4.65;;;1.30;;
82159;SDS011;71734;50.876;7.372;2023-09-18T09:25:24;6.03;;;1.40;;
82159;SDS011;71734;50.876;7.372;2023-09-18T09:34:44;7.07;;;1.63;;
82159;SDS011;71734;50.876;7.372;2023-09-18T09:37:11;5.18;;;1.67;;
82159;SDS011;71734;50.876;7.372;2023-09-18T09:39:49;5.70;;;1.58;;
82159;SDS011;71734;50.876;7.372;2023-09-18T09:42:17;4.97;;;1.40;;
82159;SDS011;71734;50.876;7.372;2023-09-18T09:44:55;3.80;;;1.38;;
82159;SDS011;71734;50.876;7.372;2023-09-18T09:47:27;6.00;;;1.42;;
82159;SDS011;71734;50.876;7.372;2023-09-18T09:49:55;4.47;;;1.50;;
82159;SDS011;71734;50.876;7.372;2023-09-18T09:52:21;5.00;;;1.58;;
82159;SDS011;71734;50.876;7.372;2023-09-18T09:54:49;4.35;;;1.40;;
82159;SDS011;71734;50.876;7.372;2023-09-18T09:57:16;5.13;;;1.50;;
82159;SDS011;71734;50.876;7.372;2023-09-18T09:59:42;5.53;;;1.50;;
82159;SDS011;71734;50.876;7.372;2023-09-18T10:02:10;4.75;;;1.55;;
82159;SDS011;71734;50.876;7.372;2023-09-18T10:04:39;4.20;;;1.65;;
82159;SDS011;71734;50.876;7.372;2023-09-18T10:07:08;5.40;;;1.80;;
82159;SDS011;71734;50.876;7.372;2023-09-18T10:09:35;5.90;;;1.50;;
82159;SDS011;71734;50.876;7.372;2023-09-18T10:12:10;4.57;;;1.30;;
82159;SDS011;71734;50.876;7.372;2023-09-18T10:14:37;4.35;;;1.55;;
82159;SDS011;71734;50.876;7.372;2023-09-18T10:17:08;4.82;;;1.48;;
82159;SDS011;71734;50.876;7.372;2023-09-18T10:19:43;5.38;;;1.40;;
82159;SDS011;71734;50.876;7.372;2023-09-18T10:22:19;3.85;;;1.30;;
82159;SDS011;71734;50.876;7.372;2023-09-18T10:24:54;4.53;;;1.38;;
82159;SDS011;71734;50.876;7.372;2023-09-18T10:27:26;4.43;;;1.42;;
82159;SDS011;71734;50.876;7.372;2023-09-18T10:29:54;5.60;;;1.48;;
82159;SDS011;71734;50.876;7.372;2023-09-18T10:32:21;5.63;;;1.38;;
82159;SDS011;71734;50.876;7.372;2023-09-18T10:34:49;4.47;;;1.33;;
82159;SDS011;71734;50.876;7.372;2023-09-18T10:37:16;3.20;;;1.23;;
82159;SDS011;71734;50.876;7.372;2023-09-18T10:39:44;4.50;;;1.25;;
82159;SDS011;71734;50.876;7.372;2023-09-18T10:42:14;3.83;;;1.20;;
82159;SDS011;71734;50.876;7.372;2023-09-18T10:44:44;4.30;;;1.20;;
82159;SDS011;71734;50.876;7.372;2023-09-18T10:47:11;4.78;;;1.23;;
82159;SDS011;71734;50.876;7.372;2023-09-18T10:49:39;3.22;;;1.05;;
82159;SDS011;71734;50.876;7.372;2023-09-18T10:52:10;7.63;;;1.40;;
82159;SDS011;71734;50.876;7.372;2023-09-18T10:54:37;5.63;;;1.25;;
82159;SDS011;71734;50.876;7.372;2023-09-18T10:57:05;2.85;;;1.20;;
82159;SDS011;71734;50.876;7.372;2023-09-18T10:59:32;5.25;;;1.40;;
82159;SDS011;71734;50.876;7.372;2023-09-18T11:02:03;4.10;;;1.20;;
82159;SDS011;71734;50.876;7.372;2023-09-18T11:04:31;3.60;;;1.17;;
82159;SDS011;71734;50.876;7.372;2023-09-18T11:07:01;4.10;;;1.38;;
82159;SDS011;71734;50.876;7.372;2023-09-18T11:09:30;3.28;;;1.10;;
82159;SDS011;71734;50.876;7.372;2023-09-18T11:12:06;3.60;;;1.00;;
82159;SDS011;71734;50.876;7.372;2023-09-18T11:14:44;3.10;;;1.00;;
82159;SDS011;71734;50.876;7.372;2023-09-18T11:17:28;3.70;;;1.25;;
82159;SDS011;71734;50.876;7.372;2023-09-18T11:20:01;3.17;;;1.23;;
82159;SDS011;71734;50.876;7.372;2023-09-18T11:22:30;5.25;;;1.25;;
82159;SDS011;71734;50.876;7.372;2023-09-18T11:28:00;5.35;;;1.30;;
82159;SDS011;71734;50.876;7.372;2023-09-18T11:30:28;4.05;;;1.20;;
82159;SDS011;71734;50.876;7.372;2023-09-18T11:32:57;4.85;;;1.50;;
82159;SDS011;71734;50.876;7.372;2023-09-18T11:35:24;4.80;;;1.10;;
82159;SDS011;71734;50.876;7.372;2023-09-18T11:38:04;4.18;;;1.25;;
82159;SDS011;71734;50.876;7.372;2023-09-18T11:40:32;3.25;;;1.15;;
82159;SDS011;71734;50.876;7.372;2023-09-18T11:43:18;3.22;;;1.15;;
82159;SDS011;71734;50.876;7.372;2023-09-18T11:45:49;2.67;;;1.10;;
82159;SDS011;71734;50.876;7.372;2023-09-18T11:48:17;5.57;;;1.60;;
82159;SDS011;71734;50.876;7.372;2023-09-18T11:50:45;3.47;;;1.30;;
82159;SDS011;71734;50.876;7.372;2023-09-18T11:53:15;4.40;;;1.10;;
82159;SDS011;71734;50.876;7.372;2023-09-18T11:55:44;3.63;;;1.20;;
82159;SDS011;71734;50.876;7.372;2023-09-18T11:58:11;4.15;;;1.30;;
82159;SDS011;71734;50.876;7.372;2023-09-18T12:00:38;5.50;;;1.33;;
82159;SDS011;71734;50.876;7.372;2023-09-18T12:03:14;4.35;;;1.30;;
82159;SDS011;71734;50.876;7.372;2023-09-18T12:05:51;3.65;;;1.30;;
82159;SDS011;71734;50.876;7.372;2023-09-18T12:08:19;6.72;;;1.40;;
82159;SDS011;71734;50.876;7.372;2023-09-18T12:10:48;3.63;;;1.17;;
82159;SDS011;71734;50.876;7.372;2023-09-18T12:13:15;4.05;;;1.20;;
82159;SDS011;71734;50.876;7.372;2023-09-18T12:15:42;4.70;;;1.48;;
82159;SDS011;71734;50.876;7.372;2023-09-18T12:18:08;4.32;;;1.50;;
82159;SDS011;71734;50.876;7.372;2023-09-18T12:20:38;4.38;;;1.33;;
82159;SDS011;71734;50.876;7.372;2023-09-18T12:23:10;3.22;;;1.23;;
82159;SDS011;71734;50.876;7.372;2023-09-18T12:25:37;4.35;;;1.45;;
82159;SDS011;71734;50.876;7.372;2023-09-18T12:28:05;4.63;;;1.58;;
82159;SDS011;71734;50.876;7.372;2023-09-18T12:30:32;3.72;;;1.23;;
82159;SDS011;71734;50.876;7.372;2023-09-18T12:33:00;4.10;;;1.50;;
82159;SDS011;71734;50.876;7.372;2023-09-18T12:35:28;5.47;;;1.63;;
82159;SDS011;71734;50.876;7.372;2023-09-18T12:37:57;2.97;;;1.23;;
82159;SDS011;71734;50.876;7.372;2023-09-18T12:40:24;4.40;;;1.30;;
82159;SDS011;71734;50.876;7.372;2023-09-18T12:42:53;3.65;;;1.60;;
82159;SDS011;71734;50.876;7.372;2023-09-18T12:45:20;3.70;;;1.42;;
82159;SDS011;71734;50.876;7.372;2023-09-18T12:47:47;3.72;;;1.25;;
82159;SDS011;71734;50.876;7.372;2023-09-18T12:50:14;7.47;;;1.50;;
82159;SDS011;71734;50.876;7.372;2023-09-18T12:52:41;4.93;;;1.23;;
82159;SDS011;71734;50.876;7.372;2023-09-18T12:55:21;4.55;;;1.20;;
82159;SDS011;71734;50.876;7.372;2023-09-18T12:57:49;6.43;;;1.25;;
82159;SDS011;71734;50.876;7.372;2023-09-18T13:00:16;4.88;;;1.30;;
82159;SDS011;71734;50.876;7.372;2023-09-18T13:02:45;6.20;;;1.40;;
82159;SDS011;71734;50.876;7.372;2023-09-18T13:05:11;7.65;;;1.70;;
82159;SDS011;71734;50.876;7.372;2023-09-18T13:07:48;5.20;;;1.63;;
82159;SDS011;71734;50.876;7.372;2023-09-18T13:10:15;4.65;;;1.40;;
82159;SDS011;71734;50.876;7.372;2023-09-18T13:12:49;4.82;;;1.52;;
82159;SDS011;71734;50.876;7.372;2023-09-18T13:15:24;3.60;;;1.40;;
82159;SDS011;71734;50.876;7.372;2023-09-18T13:17:53;3.65;;;1.23;;
82159;SDS011;71734;50.876;7.372;2023-09-18T13:20:20;4.50;;;1.38;;
82159;SDS011;71734;50.876;7.372;2023-09-18T13:25:28;4.45;;;1.30;;
82159;SDS011;71734;50.876;7.372;2023-09-18T13:28:13;3.45;;;1.13;;
82159;SDS011;71734;50.876;7.372;2023-09-18T13:30:45;3.50;;;1.17;;
82159;SDS011;71734;50.876;7.372;2023-09-18T13:33:39;4.45;;;1.50;;
82159;SDS011;71734;50.876;7.372;2023-09-18T13:36:29;4.90;;;1.70;;
82159;SDS011;71734;50.876;7.372;2023-09-18T13:38:56;3.83;;;1.30;;
82159;SDS011;71734;50.876;7.372;2023-09-18T13:41:22;4.65;;;1.30;;
82159;SDS011;71734;50.876;7.372;2023-09-18T13:44:01;4.18;;;1.42;;
82159;SDS011;71734;50.876;7.372;2023-09-18T13:46:27;3.85;;;1.35;;
82159;SDS011;71734;50.876;7.372;2023-09-18T13:48:54;4.68;;;1.50;;
82159;SDS011;71734;50.876;7.372;2023-09-18T13:51:23;5.25;;;1.45;;
82159;SDS011;71734;50.876;7.372;2023-09-18T13:53:49;2.90;;;1.33;;
82159;SDS011;71734;50.876;7.372;2023-09-18T13:56:16;3.78;;;1.70;;
82159;SDS011;71734;50.876;7.372;2023-09-18T13:58:42;6.53;;;1.35;;
82159;SDS011;71734;50.876;7.372;2023-09-18T14:01:10;5.60;;;1.40;;
82159;SDS011;71734;50.876;7.372;2023-09-18T14:03:37;3.53;;;1.20;;
82159;SDS011;71734;50.876;7.372;2023-09-18T14:06:06;5.00;;;1.50;;
82159;SDS011;71734;50.876;7.372;2023-09-18T14:08:34;4.25;;;1.40;;
82159;SDS011;71734;50.876;7.372;2023-09-18T14:11:02;5.07;;;1.50;;
82159;SDS011;71734;50.876;7.372;2023-09-18T14:13:29;3.72;;;1.27;;
82159;SDS011;71734;50.876;7.372;2023-09-18T14:15:56;3.80;;;1.33;;
82159;SDS011;71734;50.876;7.372;2023-09-18T14:18:24;4.78;;;1.38;;
82159;SDS011;71734;50.876;7.372;2023-09-18T14:20:50;4.75;;;1.23;;
82159;SDS011;71734;50.876;7.372;2023-09-18T14:23:17;3.70;;;1.40;;
82159;SDS011;71734;50.876;7.372;2023-09-18T14:25:43;3.75;;;1.23;;
82159;SDS011;71734;50.876;7.372;2023-09-18T14:28:10;4.60;;;1.25;;
82159;SDS011;71734;50.876;7.372;2023-09-18T14:30:36;5.40;;;1.60;;
82159;SDS011;71734;50.876;7.372;2023-09-18T14:33:03;4.70;;;1.27;;
82159;SDS011;71734;50.876;7.372;2023-09-18T14:35:31;3.58;;;1.40;;
82159;SDS011;71734;50.876;7.372;2023-09-18T14:37:58;4.25;;;1.60;;
82159;SDS011;71734;50.876;7.372;2023-09-18T14:40:25;3.55;;;1.20;;
82159;SDS011;71734;50.876;7.372;2023-09-18T14:42:51;4.07;;;1.30;;
82159;SDS011;71734;50.876;7.372;2023-09-18T14:45:19;4.57;;;1.40;;
82159;SDS011;71734;50.876;7.372;2023-09-18T14:47:45;3.45;;;1.23;;
82159;SDS011;71734;50.876;7.372;2023-09-18T14:50:12;4.78;;;1.50;;
82159;SDS011;71734;50.876;7.372;2023-09-18T14:52:40;4.78;;;1.38;;
82159;SDS011;71734;50.876;7.372;2023-09-18T14:55:06;3.80;;;1.20;;
82159;SDS011;71734;50.876;7.372;2023-09-18T14:57:33;2.90;;;1.17;;
82159;SDS011;71734;50.876;7.372;2023-09-18T15:00:00;5.63;;;1.40;;
82159;SDS011;71734;50.876;7.372;2023-09-18T15:02:31;3.83;;;1.27;;
82159;SDS011;71734;50.876;7.372;2023-09-18T15:04:59;3.78;;;1.20;;
82159;SDS011;71734;50.876;7.372;2023-09-18T15:07:25;3.80;;;1.33;;
82159;SDS011;71734;50.876;7.372;2023-09-18T15:09:54;4.38;;;1.20;;